createdAt,value
2018-02-25T00:00:17.636Z,51.70
2018-02-25T00:02:45.311Z,50.07
2018-02-25T00:05:13.054Z,49.47
2018-02-25T00:07:40.737Z,51.54
2018-02-25T00:10:08.764Z,50.94
2018-02-25T00:12:36.452Z,48.11
2018-02-25T00:15:04.120Z,52.04
2018-02-25T00:17:31.856Z,49.83
2018-02-25T00:19:59.547Z,49.74
2018-02-25T00:22:30.213Z,50.19
2018-02-25T00:24:57.938Z,49.00
2018-02-25T00:27:25.776Z,48.48
2018-02-25T00:29:53.457Z,48.87
2018-02-25T00:32:21.126Z,49.37
2018-02-25T00:34:48.821Z,49.18
2018-02-25T00:37:16.515Z,49.86
2018-02-25T00:39:44.214Z,49.81
2018-02-25T00:42:11.884Z,49.19
2018-02-25T00:44:39.944Z,49.79
2018-02-25T00:47:07.626Z,51.22
2018-02-25T00:49:35.322Z,50.93
2018-02-25T00:52:03.033Z,51.53
2018-02-25T00:54:30.720Z,51.14
2018-02-25T00:56:58.520Z,52.14
2018-02-25T00:59:26.199Z,50.80
2018-02-25T01:01:54.122Z,52.02
2018-02-25T01:04:21.816Z,51.59
2018-02-25T01:06:49.500Z,52.15
2018-02-25T01:09:17.197Z,50.93
2018-02-25T01:11:44.877Z,52.59
2018-02-25T01:14:12.585Z,51.54
2018-02-25T01:16:40.266Z,50.73
2018-02-25T01:19:08.453Z,52.60
2018-02-25T01:21:36.160Z,52.35
2018-02-25T01:24:03.829Z,51.12
2018-02-25T01:26:32.135Z,50.76
2018-02-25T01:28:59.811Z,51.12
2018-02-25T01:31:27.517Z,51.05
2018-02-25T01:33:55.324Z,49.71
2018-02-25T01:36:23.196Z,53.23
2018-02-25T01:38:50.883Z,50.66
2018-02-25T01:41:18.664Z,51.78
2018-02-25T01:43:46.690Z,51.88
2018-02-25T01:46:14.357Z,51.78
2018-02-25T01:48:42.053Z,50.86
2018-02-25T01:51:09.751Z,50.58
2018-02-25T01:53:37.649Z,50.96
2018-02-25T01:56:05.343Z,50.12
2018-02-25T01:58:33.028Z,51.07
2018-02-25T02:01:00.814Z,51.11
2018-02-25T02:03:28.501Z,50.68
2018-02-25T02:05:56.426Z,50.65
2018-02-25T02:08:24.135Z,49.80
2018-02-25T02:10:51.837Z,50.74
2018-02-25T02:13:19.544Z,49.10
2018-02-25T02:15:47.240Z,52.05
2018-02-25T02:18:14.946Z,49.34
2018-02-25T02:20:42.628Z,50.91
2018-02-25T02:23:10.636Z,48.38
2018-02-25T02:25:38.307Z,49.25
2018-02-25T02:28:05.992Z,49.49
2018-02-25T02:30:33.684Z,47.55
2018-02-25T02:33:01.359Z,47.20
2018-02-25T02:35:29.063Z,48.95
2018-02-25T02:37:56.811Z,49.14
2018-02-25T02:40:24.763Z,49.65
2018-02-25T02:42:52.449Z,48.51
2018-02-25T02:45:20.137Z,49.13
2018-02-25T02:47:47.831Z,50.89
2018-02-25T02:50:15.505Z,49.47
2018-02-25T02:52:43.212Z,48.97
2018-02-25T02:55:10.925Z,50.73
2018-02-25T02:57:38.804Z,49.28
2018-02-25T03:00:06.545Z,49.14
2018-02-25T03:02:34.216Z,48.69
2018-02-25T03:05:01.912Z,48.65
2018-02-25T03:07:29.593Z,50.50
2018-02-25T03:09:57.295Z,49.35
2018-02-25T03:12:24.977Z,49.50
2018-02-25T03:14:52.962Z,49.78
2018-02-25T03:17:20.635Z,49.37
2018-02-25T03:19:48.299Z,49.08
2018-02-25T03:22:16.109Z,48.04
2018-02-25T03:24:43.794Z,48.53
2018-02-25T03:27:11.480Z,48.64
2018-02-25T03:29:39.159Z,49.26
2018-02-25T03:32:06.876Z,47.93
2018-02-25T03:34:34.567Z,49.51
2018-02-25T03:37:02.259Z,48.49
2018-02-25T03:39:29.960Z,48.59
2018-02-25T03:41:57.624Z,49.85
2018-02-25T03:44:25.332Z,49.65
2018-02-25T03:46:53.003Z,49.27
2018-02-25T03:49:22.384Z,49.53
2018-02-25T03:51:50.078Z,48.84
2018-02-25T03:54:17.812Z,50.11
2018-02-25T03:56:45.518Z,49.18
2018-02-25T03:59:13.235Z,48.91
2018-02-25T04:01:40.939Z,48.84
2018-02-25T04:04:08.615Z,48.91
2018-02-25T04:06:36.358Z,48.78
2018-02-25T04:09:04.042Z,49.16
2018-02-25T04:11:31.726Z,49.17
2018-02-25T04:13:59.477Z,49.24
2018-02-25T04:16:27.162Z,49.41
2018-02-25T04:18:54.856Z,48.52
2018-02-25T04:21:22.558Z,51.93
2018-02-25T04:23:50.255Z,49.37
2018-02-25T04:26:18.031Z,48.98
2018-02-25T04:28:45.712Z,50.19
2018-02-25T04:31:13.433Z,49.20
2018-02-25T04:33:41.093Z,49.55
2018-02-25T04:36:08.770Z,50.95
2018-02-25T04:38:36.473Z,48.96
2018-02-25T04:41:04.234Z,49.18
2018-02-25T04:43:32.067Z,48.35
2018-02-25T04:45:59.736Z,50.87
2018-02-25T04:48:27.407Z,49.70
2018-02-25T04:50:55.109Z,49.37
2018-02-25T04:53:22.826Z,49.73
2018-02-25T04:55:51.095Z,49.56
2018-02-25T04:58:18.775Z,54.56
2018-02-25T05:00:46.637Z,50.09
2018-02-25T05:03:14.316Z,54.11
2018-02-25T05:05:41.996Z,52.87
2018-02-25T05:08:09.692Z,53.08
2018-02-25T05:10:37.360Z,52.36
2018-02-25T05:13:05.053Z,53.24
2018-02-25T05:15:32.743Z,51.90
2018-02-25T05:18:00.884Z,52.48
2018-02-25T05:20:28.555Z,53.96
2018-02-25T05:22:56.220Z,53.09
2018-02-25T05:25:23.923Z,52.14
2018-02-25T05:27:51.610Z,52.12
2018-02-25T05:30:19.305Z,52.18
2018-02-25T05:32:46.980Z,51.66
2018-02-25T05:35:14.692Z,51.70
2018-02-25T05:37:42.364Z,51.92
2018-02-25T05:40:10.034Z,51.86
2018-02-25T05:42:37.728Z,52.26
2018-02-25T05:45:05.399Z,52.66
2018-02-25T05:47:33.097Z,51.57
2018-02-25T05:50:00.772Z,52.39
2018-02-25T05:52:28.612Z,51.95
2018-02-25T05:54:56.290Z,52.06
2018-02-25T05:57:23.967Z,51.57
2018-02-25T05:59:51.665Z,53.06
2018-02-25T06:02:19.341Z,51.85
2018-02-25T06:04:47.073Z,52.75
2018-02-25T06:07:14.744Z,54.87
2018-02-25T06:09:42.674Z,52.10
2018-02-25T06:12:10.359Z,53.50
2018-02-25T06:14:38.034Z,54.39
2018-02-25T06:17:05.740Z,52.82
2018-02-25T06:19:33.420Z,53.77
2018-02-25T06:22:01.144Z,53.99
2018-02-25T06:24:28.818Z,54.67
2018-02-25T06:26:56.654Z,53.30
2018-02-25T06:29:24.331Z,53.31
2018-02-25T06:31:52.011Z,53.28
2018-02-25T06:34:19.707Z,53.80
2018-02-25T06:36:47.411Z,52.42
2018-02-25T06:39:15.115Z,52.33
2018-02-25T06:41:42.798Z,52.44
2018-02-25T06:44:10.714Z,53.74
2018-02-25T06:46:38.393Z,54.20
2018-02-25T06:49:06.068Z,54.76
2018-02-25T06:51:33.760Z,55.83
2018-02-25T06:54:01.439Z,53.55
2018-02-25T06:56:29.133Z,54.52
2018-02-25T06:58:56.808Z,52.74
2018-02-25T07:01:24.521Z,54.82
2018-02-25T07:03:52.210Z,53.28
2018-02-25T07:06:19.896Z,54.21
2018-02-25T07:08:48.732Z,54.45
2018-02-25T07:11:16.403Z,54.02
2018-02-25T07:13:44.113Z,52.99
2018-02-25T07:16:11.784Z,53.23
2018-02-25T07:18:39.497Z,52.62
2018-02-25T07:21:07.172Z,52.13
2018-02-25T07:23:34.864Z,54.44
2018-02-25T07:26:02.555Z,53.93
2018-02-25T07:28:30.219Z,52.45
2018-02-25T07:30:57.918Z,52.76
2018-02-25T07:33:25.587Z,52.59
2018-02-25T07:35:53.309Z,52.73
2018-02-25T07:38:20.987Z,56.88
2018-02-25T07:40:48.659Z,55.14
2018-02-25T07:43:16.357Z,51.76
2018-02-25T07:45:44.028Z,54.21
2018-02-25T07:48:11.718Z,50.98
2018-02-25T07:50:39.385Z,52.83
2018-02-25T07:53:07.284Z,51.61
2018-02-25T07:55:34.969Z,51.18
2018-02-25T07:58:02.640Z,51.69
2018-02-25T08:00:30.439Z,51.19
2018-02-25T08:02:58.126Z,50.20
2018-02-25T08:05:26.572Z,51.23
2018-02-25T08:07:54.256Z,50.36
2018-02-25T08:10:22.148Z,50.80
2018-02-25T08:12:49.835Z,51.20
2018-02-25T08:15:17.511Z,52.42
2018-02-25T08:17:45.210Z,51.51
2018-02-25T08:20:12.889Z,51.53
2018-02-25T08:22:40.596Z,50.27
2018-02-25T08:25:08.268Z,50.92
2018-02-25T08:27:36.300Z,49.73
2018-02-25T08:30:03.976Z,49.13
2018-02-25T08:32:31.662Z,49.48
2018-02-25T08:34:59.360Z,48.63
2018-02-25T08:37:27.035Z,51.10
2018-02-25T08:39:54.728Z,49.43
2018-02-25T08:42:22.413Z,49.19
2018-02-25T08:44:50.266Z,49.32
2018-02-25T08:47:17.940Z,48.51
2018-02-25T08:49:45.619Z,48.22
2018-02-25T08:52:13.312Z,48.36
2018-02-25T08:54:40.990Z,48.24
2018-02-25T08:57:08.692Z,48.31
2018-02-25T08:59:36.359Z,46.36
2018-02-25T09:02:04.299Z,47.24
2018-02-25T09:04:31.977Z,46.81
2018-02-25T09:06:59.707Z,46.36
2018-02-25T09:09:27.375Z,46.76
2018-02-25T09:11:55.064Z,46.50
2018-02-25T09:14:22.788Z,46.66
2018-02-25T09:16:50.476Z,47.34
2018-02-25T09:19:18.177Z,46.72
2018-02-25T09:21:45.861Z,46.57
2018-02-25T09:26:47.472Z,46.93
2018-02-25T09:29:15.234Z,46.54
2018-02-25T09:31:43.091Z,47.34
2018-02-25T09:34:10.776Z,46.07
2018-02-25T09:36:38.442Z,44.79
2018-02-25T09:39:06.142Z,42.97
2018-02-25T09:41:33.823Z,44.37
2018-02-25T09:44:01.713Z,43.60
2018-02-25T09:46:29.416Z,43.41
2018-02-25T09:48:57.084Z,43.33
2018-02-25T09:51:24.811Z,44.07
2018-02-25T09:53:52.508Z,43.86
2018-02-25T09:56:20.203Z,40.65
2018-02-25T09:58:47.873Z,39.07
2018-02-25T10:01:15.766Z,41.44
2018-02-25T10:03:43.438Z,46.61
2018-02-25T10:06:11.117Z,43.22
2018-02-25T10:08:38.830Z,43.05
2018-02-25T10:11:06.514Z,43.28
2018-02-25T10:13:34.355Z,41.85
2018-02-25T10:16:02.042Z,43.15
2018-02-25T10:18:29.729Z,44.03
2018-02-25T10:20:57.429Z,41.99
2018-02-25T10:23:25.103Z,42.08
2018-02-25T10:25:52.803Z,41.08
2018-02-25T10:28:20.479Z,40.94
2018-02-25T10:30:48.536Z,39.19
2018-02-25T10:33:16.237Z,37.73
2018-02-25T10:35:43.920Z,39.22
2018-02-25T10:38:11.623Z,39.76
2018-02-25T10:40:39.309Z,39.84
2018-02-25T10:43:07.040Z,39.28
2018-02-25T10:45:34.739Z,39.15
2018-02-25T10:48:02.479Z,37.89
2018-02-25T10:50:30.164Z,37.29
2018-02-25T10:52:57.842Z,37.24
2018-02-25T10:55:25.541Z,37.85
2018-02-25T10:57:53.230Z,36.85
2018-02-25T11:00:26.416Z,36.85
2018-02-25T11:02:54.098Z,36.74
2018-02-25T11:05:21.971Z,37.29
2018-02-25T11:07:49.642Z,35.29
2018-02-25T11:10:17.324Z,35.72
2018-02-25T11:12:45.039Z,36.52
2018-02-25T11:15:12.740Z,35.69
2018-02-25T11:17:40.564Z,37.30
2018-02-25T11:20:08.235Z,36.34
2018-02-25T11:22:35.912Z,34.94
2018-02-25T11:25:03.606Z,38.32
2018-02-25T11:27:31.279Z,35.34
2018-02-25T11:29:58.974Z,35.89
2018-02-25T11:32:26.639Z,34.70
2018-02-25T11:34:54.623Z,36.93
2018-02-25T11:37:22.287Z,33.03
2018-02-25T11:39:49.957Z,33.23
2018-02-25T11:42:17.656Z,33.67
2018-02-25T11:44:45.355Z,31.53
2018-02-25T11:47:13.034Z,31.14
2018-02-25T11:49:40.704Z,31.51
2018-02-25T11:52:08.651Z,31.19
2018-02-25T11:54:36.330Z,31.53
2018-02-25T11:57:04.000Z,31.35
2018-02-25T11:59:31.676Z,31.35
2018-02-25T12:01:59.356Z,29.91
2018-02-25T12:04:27.066Z,29.87
2018-02-25T12:06:54.737Z,30.29
2018-02-25T12:09:22.433Z,29.83
2018-02-25T12:11:50.099Z,29.06
2018-02-25T12:14:17.820Z,30.45
2018-02-25T12:16:45.497Z,29.61
2018-02-25T12:19:13.171Z,28.91
2018-02-25T12:21:40.873Z,29.28
2018-02-25T12:24:08.560Z,28.92
2018-02-25T12:26:36.259Z,28.18
2018-02-25T12:29:03.944Z,27.85
2018-02-25T12:31:31.769Z,26.96
2018-02-25T12:33:59.439Z,25.73
2018-02-25T12:36:27.119Z,25.01
2018-02-25T12:38:54.831Z,27.06
2018-02-25T12:41:22.508Z,24.67
2018-02-25T12:43:50.222Z,24.77
2018-02-25T12:46:17.896Z,24.62
2018-02-25T12:48:45.829Z,24.43
2018-02-25T12:51:13.527Z,24.99
2018-02-25T12:53:41.191Z,23.81
2018-02-25T12:56:08.890Z,22.47
2018-02-25T12:58:36.579Z,22.29
2018-02-25T13:01:04.323Z,22.39
2018-02-25T13:03:31.989Z,21.80
2018-02-25T13:05:59.886Z,22.86
2018-02-25T13:08:27.481Z,20.00
2018-02-25T13:10:55.075Z,19.87
2018-02-25T13:13:22.692Z,21.02
2018-02-25T13:15:50.296Z,18.73
2018-02-25T13:18:17.954Z,19.14
2018-02-25T13:20:45.559Z,18.03
2018-02-25T13:23:13.239Z,18.45
2018-02-25T13:25:40.861Z,19.56
2018-02-25T13:28:08.449Z,19.19
2018-02-25T13:30:36.069Z,18.65
2018-02-25T13:33:03.668Z,17.74
2018-02-25T13:35:31.316Z,17.25
2018-02-25T13:37:58.901Z,18.01
2018-02-25T13:40:26.501Z,17.72
2018-02-25T13:42:54.166Z,18.94
2018-02-25T13:45:21.756Z,17.50
2018-02-25T13:47:49.635Z,17.86
2018-02-25T13:50:17.256Z,18.70
2018-02-25T13:52:44.872Z,18.35
2018-02-25T13:55:12.460Z,18.04
2018-02-25T13:57:40.768Z,17.44
2018-02-25T14:00:08.381Z,17.73
2018-02-25T14:02:35.985Z,17.91
2018-02-25T14:05:03.599Z,18.65
2018-02-25T14:07:31.214Z,17.84
2018-02-25T14:09:58.858Z,18.16
2018-02-25T14:12:26.469Z,19.09
2018-02-25T14:14:54.070Z,19.05
2018-02-25T14:17:21.681Z,18.13
2018-02-25T14:19:49.356Z,18.15
2018-02-25T14:22:17.076Z,18.51
2018-02-25T14:24:44.674Z,18.51
2018-02-25T14:27:12.308Z,18.20
2018-02-25T14:29:39.955Z,18.86
2018-02-25T14:32:07.665Z,20.35
2018-02-25T14:34:35.370Z,20.14
2018-02-25T14:37:03.041Z,21.52
2018-02-25T14:39:30.741Z,20.55
2018-02-25T14:41:58.407Z,20.52
2018-02-25T14:44:26.233Z,20.95
2018-02-25T14:46:53.912Z,23.29
2018-02-25T14:49:21.607Z,21.56
2018-02-25T14:51:49.307Z,22.02
2018-02-25T14:54:16.979Z,22.87
2018-02-25T14:56:44.689Z,22.50
2018-02-25T14:59:12.375Z,24.35
2018-02-25T15:01:40.310Z,22.04
2018-02-25T15:04:07.991Z,22.77
2018-02-25T15:06:35.667Z,21.79
2018-02-25T15:09:03.371Z,22.57
2018-02-25T15:11:31.133Z,23.64
2018-02-25T15:13:58.824Z,22.43
2018-02-25T15:16:26.487Z,22.53
2018-02-25T15:18:54.321Z,22.93
2018-02-25T15:21:21.981Z,22.05
2018-02-25T15:23:49.772Z,23.35
2018-02-25T15:26:17.495Z,22.65
2018-02-25T15:28:45.162Z,23.11
2018-02-25T15:31:12.865Z,22.31
2018-02-25T15:33:40.552Z,22.65
2018-02-25T15:36:08.253Z,26.07
2018-02-25T15:38:35.926Z,28.78
2018-02-25T15:41:03.609Z,23.74
2018-02-25T15:43:31.329Z,27.86
2018-02-25T15:45:59.209Z,25.67
2018-02-25T15:48:26.911Z,26.12
2018-02-25T15:50:54.840Z,26.03
2018-02-25T15:53:22.735Z,26.59
2018-02-25T15:55:50.405Z,30.04
2018-02-25T15:58:18.249Z,26.97
2018-02-25T16:00:45.946Z,29.46
2018-02-25T16:03:13.610Z,26.99
2018-02-25T16:05:41.315Z,28.33
2018-02-25T16:08:09.000Z,30.18
2018-02-25T16:10:36.830Z,33.51
2018-02-25T16:13:04.502Z,26.37
2018-02-25T16:15:32.307Z,27.10
2018-02-25T16:18:00.008Z,25.82
2018-02-25T16:20:27.688Z,26.50
2018-02-25T16:22:55.602Z,27.80
2018-02-25T16:25:23.273Z,28.72
2018-02-25T16:27:50.960Z,26.42
2018-02-25T16:30:18.663Z,29.54
2018-02-25T16:32:46.350Z,26.42
2018-02-25T16:35:14.091Z,24.27
2018-02-25T16:37:41.772Z,23.98
2018-02-25T16:40:09.648Z,24.09
2018-02-25T16:42:37.330Z,23.92
2018-02-25T16:45:05.000Z,24.26
2018-02-25T16:47:32.700Z,24.76
2018-02-25T16:50:00.367Z,23.83
2018-02-25T16:52:28.066Z,24.20
2018-02-25T16:54:55.736Z,25.34
2018-02-25T16:57:23.428Z,24.66
2018-02-25T16:59:51.113Z,24.39
2018-02-25T17:02:19.102Z,25.80
2018-02-25T17:04:46.789Z,25.24
2018-02-25T17:07:14.449Z,24.44
2018-02-25T17:09:42.202Z,27.81
2018-02-25T17:12:09.848Z,25.07
2018-02-25T17:14:37.553Z,24.90
2018-02-25T17:17:05.236Z,26.11
2018-02-25T17:19:33.150Z,24.87
2018-02-25T17:22:00.827Z,24.41
2018-02-25T17:24:28.529Z,24.52
2018-02-25T17:26:56.251Z,25.19
2018-02-25T17:29:24.132Z,24.68
2018-02-25T17:31:51.903Z,24.79
2018-02-25T17:34:19.615Z,25.32
2018-02-25T17:36:47.488Z,25.48
2018-02-25T17:39:15.167Z,25.23
2018-02-25T17:41:42.844Z,25.03
2018-02-25T17:44:10.542Z,25.54
2018-02-25T17:46:38.227Z,26.07
2018-02-25T17:49:05.934Z,27.53
2018-02-25T17:51:33.630Z,28.70
2018-02-25T17:54:01.347Z,30.57
2018-02-25T17:56:29.019Z,31.86
2018-02-25T17:58:56.982Z,32.24
2018-02-25T18:01:24.695Z,33.39
2018-02-25T18:03:52.366Z,33.54
2018-02-25T18:06:20.068Z,35.46
2018-02-25T18:08:47.750Z,33.70
2018-02-25T18:11:15.741Z,33.92
2018-02-25T18:13:43.417Z,34.31
2018-02-25T18:16:11.087Z,34.58
2018-02-25T18:18:38.798Z,35.24
2018-02-25T18:21:06.472Z,35.00
2018-02-25T18:23:34.162Z,34.95
2018-02-25T18:26:01.837Z,35.00
2018-02-25T18:28:29.850Z,35.02
2018-02-25T18:30:57.517Z,34.83
2018-02-25T18:33:25.195Z,34.68
2018-02-25T18:35:52.892Z,35.17
2018-02-25T18:38:20.557Z,35.41
2018-02-25T18:40:48.260Z,34.54
2018-02-25T18:43:15.947Z,34.04
2018-02-25T18:45:43.784Z,33.90
2018-02-25T18:48:11.453Z,33.94
2018-02-25T18:50:39.133Z,34.17
2018-02-25T18:53:06.812Z,32.93
2018-02-25T18:55:34.483Z,32.82
2018-02-25T18:58:02.168Z,33.25
2018-02-25T19:00:29.835Z,32.37
2018-02-25T19:02:57.584Z,32.82
2018-02-25T19:05:25.264Z,31.49
2018-02-25T19:07:52.953Z,31.99
2018-02-25T19:10:20.656Z,31.62
2018-02-25T19:12:48.325Z,31.16
2018-02-25T19:15:16.161Z,31.32
2018-02-25T19:17:43.822Z,31.22
2018-02-25T19:20:11.495Z,31.10
2018-02-25T19:22:39.188Z,30.71
2018-02-25T19:25:06.884Z,31.55
2018-02-25T19:27:34.594Z,31.13
2018-02-25T19:30:02.269Z,31.01
2018-02-25T19:32:29.985Z,31.49
2018-02-25T19:34:57.643Z,30.85
2018-02-25T19:37:30.941Z,33.62
2018-02-25T19:40:03.973Z,32.80
2018-02-25T19:42:31.667Z,31.21
2018-02-25T19:44:59.378Z,31.18
2018-02-25T19:47:27.051Z,31.88
2018-02-25T19:49:54.749Z,31.62
2018-02-25T19:52:22.410Z,31.84
2018-02-25T19:54:50.429Z,31.71
2018-02-25T19:57:18.093Z,34.50
2018-02-25T19:59:45.764Z,31.57
2018-02-25T20:02:13.448Z,31.27
2018-02-25T20:04:41.129Z,31.34
2018-02-25T20:07:08.817Z,31.74
2018-02-25T20:09:36.503Z,31.77
2018-02-25T20:12:04.256Z,31.34
2018-02-25T20:14:32.034Z,31.86
2018-02-25T20:16:59.727Z,31.99
2018-02-25T20:19:27.386Z,32.54
2018-02-25T20:21:55.083Z,32.57
2018-02-25T20:24:22.761Z,32.86
2018-02-25T20:26:50.458Z,32.89
2018-02-25T20:29:18.149Z,33.32
2018-02-25T20:31:45.869Z,33.04
2018-02-25T20:34:13.549Z,33.32
2018-02-25T20:36:41.244Z,33.99
2018-02-25T20:39:08.920Z,33.19
2018-02-25T20:41:36.583Z,32.99
2018-02-25T20:44:04.269Z,33.50
2018-02-25T20:46:31.935Z,32.87
2018-02-25T20:48:59.813Z,33.93
2018-02-25T20:51:27.514Z,33.60
2018-02-25T20:53:55.251Z,33.98
2018-02-25T20:56:22.911Z,34.29
2018-02-25T20:58:50.576Z,34.22
2018-02-25T21:01:18.270Z,34.02
2018-02-25T21:03:45.932Z,33.92
2018-02-25T21:06:13.953Z,34.18
2018-02-25T21:08:41.620Z,34.79
2018-02-25T21:11:09.287Z,34.63
2018-02-25T21:13:36.986Z,34.65
2018-02-25T21:16:04.651Z,35.71
2018-02-25T21:18:32.334Z,34.65
2018-02-25T21:21:00.034Z,35.46
2018-02-25T21:23:27.906Z,35.04
2018-02-25T21:25:55.572Z,35.13
2018-02-25T21:28:23.257Z,35.42
2018-02-25T21:30:50.961Z,34.86
2018-02-25T21:33:18.649Z,35.17
2018-02-25T21:35:46.615Z,35.75
2018-02-25T21:38:14.284Z,36.56
2018-02-25T21:40:42.041Z,35.85
2018-02-25T21:43:09.743Z,35.43
2018-02-25T21:45:37.429Z,35.99
2018-02-25T21:48:05.140Z,35.95
2018-02-25T21:50:32.825Z,36.15
2018-02-25T21:53:00.869Z,38.15
2018-02-25T21:55:28.573Z,36.38
2018-02-25T21:58:02.011Z,37.30
2018-02-25T22:00:35.091Z,36.62
2018-02-25T22:03:08.524Z,36.19
2018-02-25T22:05:36.196Z,36.13
2018-02-25T22:08:03.880Z,36.50
2018-02-25T22:10:31.575Z,37.73
2018-02-25T22:12:59.256Z,36.72
2018-02-25T22:15:26.956Z,36.77
2018-02-25T22:17:54.628Z,38.93
2018-02-25T22:20:22.419Z,38.13
2018-02-25T22:22:50.144Z,38.09
2018-02-25T22:25:17.812Z,37.63
2018-02-25T22:27:45.514Z,38.62
2018-02-25T22:30:13.188Z,37.45
2018-02-25T22:32:40.876Z,37.14
2018-02-25T22:35:08.541Z,37.79
2018-02-25T22:37:36.396Z,37.71
2018-02-25T22:40:04.084Z,42.51
2018-02-25T22:42:31.758Z,38.87
2018-02-25T22:44:59.473Z,38.01
2018-02-25T22:47:27.136Z,38.28
2018-02-25T22:49:54.828Z,37.67
2018-02-25T22:52:22.502Z,38.09
2018-02-25T22:54:50.551Z,38.36
2018-02-25T22:57:18.220Z,38.28
2018-02-25T22:59:45.900Z,38.84
2018-02-25T23:02:13.601Z,40.51
2018-02-25T23:04:41.285Z,38.68
2018-02-25T23:07:08.976Z,38.72
2018-02-25T23:09:36.648Z,38.44
2018-02-25T23:12:04.363Z,41.98
2018-02-25T23:14:32.023Z,38.58
2018-02-25T23:16:59.699Z,38.95
2018-02-25T23:19:27.396Z,38.20
2018-02-25T23:21:55.063Z,38.91
2018-02-25T23:24:22.757Z,38.86
2018-02-25T23:26:50.478Z,40.18
2018-02-25T23:29:18.369Z,39.44
2018-02-25T23:31:46.050Z,39.56
2018-02-25T23:34:13.729Z,40.43
2018-02-25T23:36:41.443Z,39.62
2018-02-25T23:39:09.121Z,38.99
2018-02-25T23:41:36.811Z,38.58
2018-02-25T23:44:04.476Z,39.12
2018-02-25T23:46:33.983Z,38.71
2018-02-25T23:49:01.643Z,38.54
2018-02-25T23:51:29.330Z,39.61
2018-02-25T23:53:57.013Z,39.19
2018-02-25T23:56:24.684Z,38.78
2018-02-25T23:58:52.584Z,39.20
